createdAt,value
2019-01-05T00:07:40.610Z,13.62
2019-01-05T00:10:48.898Z,21.68
2019-01-05T00:13:37.436Z,21.48
2019-01-05T00:16:21.145Z,14.33
2019-01-05T00:19:27.488Z,24.97
2019-01-05T00:22:15.129Z,16.27
2019-01-05T00:28:05.063Z,19.50
2019-01-05T00:30:52.315Z,12.18
2019-01-05T00:33:42.998Z,13.93
2019-01-05T00:36:43.056Z,17.87
2019-01-05T00:39:39.467Z,18.17
2019-01-05T00:42:43.558Z,12.75
2019-01-05T00:48:17.818Z,15.35
2019-01-05T00:51:20.545Z,13.70
2019-01-05T00:54:07.721Z,12.75
2019-01-05T00:56:55.617Z,8.88
2019-01-05T00:59:53.145Z,11.70
2019-01-05T01:02:50.476Z,13.20
2019-01-05T01:05:38.903Z,13.68
2019-01-05T01:08:39.429Z,14.07
2019-01-05T01:11:30.641Z,16.60
2019-01-05T01:14:18.939Z,15.45
2019-01-05T01:17:05.678Z,19.77
2019-01-05T01:19:50.598Z,14.23
2019-01-05T01:22:37.945Z,21.83
2019-01-05T01:25:29.222Z,13.60
2019-01-05T01:28:17.574Z,11.83
2019-01-05T01:34:03.519Z,13.10
2019-01-05T01:36:57.503Z,12.82
2019-01-05T01:39:51.929Z,20.73
2019-01-05T01:42:40.542Z,14.58
2019-01-05T01:45:35.333Z,13.07
2019-01-05T01:48:27.593Z,10.45
2019-01-05T01:51:25.222Z,14.03
2019-01-05T01:54:16.746Z,15.50
2019-01-05T01:57:17.481Z,12.58
2019-01-05T02:00:08.247Z,14.67
2019-01-05T02:03:09.030Z,12.10
2019-01-05T02:05:57.106Z,15.00
2019-01-05T02:08:55.986Z,16.43
2019-01-05T02:11:51.488Z,14.80
2019-01-05T02:14:41.310Z,10.20
2019-01-05T02:17:30.122Z,14.87
2019-01-05T02:20:41.282Z,22.23
2019-01-05T02:27:24.504Z,11.17
2019-01-05T02:30:25.933Z,14.40
2019-01-05T02:33:33.064Z,15.63
2019-01-05T02:36:44.721Z,11.90
2019-01-05T02:39:48.091Z,18.50
2019-01-05T02:43:02.558Z,20.27
2019-01-05T02:46:15.486Z,14.50
2019-01-05T02:49:18.608Z,19.33
2019-01-05T02:55:22.866Z,20.47
2019-01-05T02:58:31.090Z,15.93
2019-01-05T03:01:35.222Z,21.40
2019-01-05T03:04:31.412Z,18.70
2019-01-05T03:07:51.655Z,30.17
2019-01-05T03:11:00.662Z,17.83
2019-01-05T03:20:36.575Z,13.50
2019-01-05T03:26:34.115Z,17.83
2019-01-05T03:29:55.735Z,15.43
2019-01-05T03:32:46.008Z,24.67
2019-01-05T03:39:10.229Z,22.30
2019-01-05T03:42:17.572Z,26.37
2019-01-05T03:45:28.115Z,22.00
2019-01-05T03:48:31.046Z,23.10
2019-01-05T03:51:44.089Z,19.70
2019-01-05T03:57:46.282Z,22.10
2019-01-05T04:00:40.142Z,14.23
2019-01-05T04:03:33.573Z,21.43
2019-01-05T04:06:39.714Z,23.67
2019-01-05T04:09:45.532Z,23.57
2019-01-05T04:12:57.882Z,27.83
2019-01-05T04:16:17.029Z,30.13
2019-01-05T04:19:30.774Z,22.17
2019-01-05T04:22:47.677Z,32.50
2019-01-05T04:26:06.506Z,22.07
2019-01-05T04:29:15.341Z,27.73
2019-01-05T04:35:51.472Z,20.93
2019-01-05T04:39:07.335Z,27.83
2019-01-05T04:42:05.944Z,20.03
2019-01-05T04:45:14.659Z,30.13
2019-01-05T04:48:34.057Z,21.43
2019-01-05T04:51:44.036Z,21.50
2019-01-05T04:54:50.299Z,19.30
2019-01-05T04:58:15.006Z,28.40
2019-01-05T05:01:25.405Z,53.07
2019-01-05T05:07:27.136Z,43.87
2019-01-05T05:10:32.639Z,30.37
2019-01-05T05:13:39.206Z,23.92
2019-01-05T05:17:04.217Z,40.80
2019-01-05T05:20:00.272Z,24.77
2019-01-05T05:23:07.074Z,34.63
2019-01-05T05:26:37.727Z,27.32
2019-01-05T05:29:44.006Z,22.77
2019-01-05T05:32:48.691Z,40.17
2019-01-05T05:36:06.285Z,37.58
2019-01-05T05:39:25.290Z,52.78
2019-01-05T05:42:47.493Z,48.55
2019-01-05T05:45:56.121Z,67.55
2019-01-05T05:49:02.041Z,45.60
2019-01-05T05:52:42.709Z,42.33
2019-01-05T05:55:48.061Z,31.05
2019-01-05T05:58:55.883Z,39.42
2019-01-05T06:02:05.658Z,14.83
2019-01-05T06:05:13.386Z,18.45
2019-01-05T06:08:27.890Z,35.38
2019-01-05T06:11:29.332Z,24.87
2019-01-05T06:18:03.623Z,27.05
2019-01-05T06:21:18.328Z,36.08
2019-01-05T06:24:35.573Z,26.82
2019-01-05T06:27:39.644Z,22.48
2019-01-05T06:30:45.163Z,22.82
2019-01-05T06:34:05.477Z,32.83
2019-01-05T06:36:54.446Z,31.75
2019-01-05T06:40:07.394Z,32.25
2019-01-05T06:43:24.786Z,26.60
2019-01-05T06:46:22.906Z,27.90
2019-01-05T06:49:43.665Z,29.95
2019-01-05T06:52:48.038Z,27.25
2019-01-05T06:55:58.433Z,32.00
2019-01-05T06:59:07.281Z,25.12
2019-01-05T07:02:14.402Z,29.42
2019-01-05T07:05:29.853Z,29.20
2019-01-05T07:08:29.082Z,31.20
2019-01-05T07:11:37.469Z,33.73
2019-01-05T07:14:55.224Z,35.95
2019-01-05T07:17:58.627Z,45.48
2019-01-05T07:21:02.896Z,42.23
2019-01-05T07:24:08.375Z,25.52
2019-01-05T07:27:20.089Z,24.90
2019-01-05T07:30:24.339Z,26.82
2019-01-05T07:33:28.620Z,28.57
2019-01-05T07:36:38.757Z,25.57
2019-01-05T07:39:52.850Z,34.13
2019-01-05T07:46:06.189Z,27.90
2019-01-05T07:49:11.650Z,26.75
2019-01-05T07:52:02.169Z,29.82
2019-01-05T07:58:20.466Z,29.15
2019-01-05T08:01:29.762Z,24.80
2019-01-05T08:07:58.291Z,28.27
2019-01-05T08:11:20.318Z,28.60
2019-01-05T08:14:34.100Z,35.05
2019-01-05T08:17:51.774Z,25.08
2019-01-05T08:21:03.393Z,25.25
2019-01-05T08:24:14.671Z,33.15
2019-01-05T08:30:46.753Z,35.52
2019-01-05T08:34:02.802Z,29.40
2019-01-05T08:37:17.777Z,28.02
2019-01-05T08:40:23.362Z,34.75
2019-01-05T08:46:42.714Z,24.02
2019-01-05T08:49:48.155Z,25.05
2019-01-05T08:52:52.391Z,34.45
2019-01-05T08:58:59.768Z,27.98
2019-01-05T09:02:06.750Z,29.30
2019-01-05T09:05:25.721Z,24.77
2019-01-05T09:08:38.778Z,28.83
2019-01-05T09:11:51.995Z,26.93
2019-01-05T09:14:54.015Z,33.25
2019-01-05T09:17:59.410Z,37.93
2019-01-05T09:21:00.551Z,37.17
2019-01-05T09:24:05.006Z,35.85
2019-01-05T09:27:20.488Z,27.75
2019-01-05T09:30:34.214Z,32.10
2019-01-05T09:34:05.009Z,27.37
2019-01-05T09:37:27.836Z,59.30
2019-01-05T09:40:35.586Z,25.43
2019-01-05T09:43:50.322Z,29.52
2019-01-05T09:46:58.473Z,27.77
2019-01-05T09:50:04.205Z,25.60
2019-01-05T09:53:22.755Z,28.42
2019-01-05T09:56:33.682Z,29.00
2019-01-05T09:59:43.279Z,24.43
2019-01-05T10:03:00.965Z,24.57
2019-01-05T10:06:06.447Z,26.75
2019-01-05T10:09:17.665Z,28.20
2019-01-05T10:12:25.829Z,20.08
2019-01-05T10:15:28.609Z,24.18
2019-01-05T10:18:47.397Z,26.12
2019-01-05T10:22:12.722Z,20.25
2019-01-05T10:25:18.357Z,28.15
2019-01-05T10:28:24.070Z,26.30
2019-01-05T10:34:03.545Z,28.10
2019-01-05T10:37:34.444Z,23.80
2019-01-05T10:40:47.717Z,31.05
2019-01-05T10:47:36.203Z,24.55
2019-01-05T10:54:17.916Z,24.95
2019-01-05T10:57:39.155Z,21.60
2019-01-05T11:01:00.705Z,29.70
2019-01-05T11:04:15.366Z,25.90
2019-01-05T11:07:10.963Z,18.48
2019-01-05T11:10:24.154Z,20.85
2019-01-05T11:16:48.927Z,25.15
2019-01-05T11:19:55.638Z,27.37
2019-01-05T11:25:54.360Z,24.10
2019-01-05T11:29:08.685Z,19.05
2019-01-05T11:32:18.821Z,22.80
2019-01-05T11:35:55.876Z,40.28
2019-01-05T11:39:07.310Z,28.60
2019-01-05T11:52:28.483Z,25.65
2019-01-05T11:55:42.080Z,27.37
2019-01-05T11:58:56.824Z,21.50
2019-01-05T12:02:09.278Z,23.75
2019-01-05T12:05:22.710Z,27.50
2019-01-05T12:08:26.879Z,27.45
2019-01-05T12:11:58.222Z,24.67
2019-01-05T12:15:12.041Z,30.08
2019-01-05T12:18:25.281Z,30.60
2019-01-05T12:21:36.481Z,23.70
2019-01-05T12:24:59.307Z,16.30
2019-01-05T12:28:11.862Z,20.88
2019-01-05T12:31:21.777Z,22.20
2019-01-05T12:34:38.959Z,27.45
2019-01-05T12:37:43.578Z,26.77
2019-01-05T12:40:56.466Z,14.93
2019-01-05T12:50:33.913Z,25.08
2019-01-05T12:53:39.596Z,18.37
2019-01-05T12:56:52.177Z,24.67
2019-01-05T13:00:16.733Z,28.95
2019-01-05T13:03:22.106Z,20.12
2019-01-05T13:06:46.667Z,21.90
2019-01-05T13:10:21.657Z,26.97
2019-01-05T13:16:12.374Z,25.82
2019-01-05T13:22:22.111Z,23.00
2019-01-05T13:25:28.923Z,19.85
2019-01-05T13:28:39.532Z,21.33
2019-01-05T13:34:46.496Z,24.80
2019-01-05T13:38:10.192Z,20.77
2019-01-05T13:41:14.394Z,20.57
2019-01-05T13:44:33.257Z,25.52
2019-01-05T13:47:46.434Z,24.77
2019-01-05T13:50:51.970Z,30.12
2019-01-05T13:53:50.441Z,29.82
2019-01-05T13:59:46.464Z,26.05
2019-01-05T14:02:49.859Z,20.35
2019-01-05T14:05:38.212Z,34.23
2019-01-05T14:08:32.474Z,32.55
2019-01-05T14:11:26.956Z,37.42
2019-01-05T14:14:21.190Z,35.40
2019-01-05T14:17:24.536Z,33.23
2019-01-05T14:23:17.050Z,39.40
2019-01-05T14:26:05.221Z,35.00
2019-01-05T14:29:15.587Z,39.13
2019-01-05T14:31:58.105Z,31.23
2019-01-05T14:34:45.053Z,32.05
2019-01-05T14:37:33.170Z,37.93
2019-01-05T14:40:30.257Z,36.03
2019-01-05T14:43:18.435Z,35.80
2019-01-05T14:46:05.130Z,40.52
2019-01-05T14:49:08.548Z,50.80
2019-01-05T14:54:55.446Z,38.25
2019-01-05T14:57:42.601Z,33.05
2019-01-05T15:03:30.430Z,48.13
2019-01-05T15:06:24.396Z,42.97
2019-01-05T15:09:30.933Z,39.60
2019-01-05T15:12:24.952Z,49.33
2019-01-05T15:15:13.261Z,56.30
2019-01-05T15:18:13.610Z,47.37
2019-01-05T15:21:02.824Z,61.33
2019-01-05T15:24:03.089Z,51.70
2019-01-05T15:26:54.330Z,35.07
2019-01-05T15:29:51.706Z,36.63
2019-01-05T15:32:40.991Z,36.83
2019-01-05T15:35:30.266Z,47.40
2019-01-05T15:38:17.165Z,48.13
2019-01-05T15:44:11.338Z,45.40
2019-01-05T15:46:58.231Z,60.23
2019-01-05T15:49:41.620Z,34.30
2019-01-05T15:52:29.782Z,43.13
2019-01-05T15:55:16.741Z,44.53
2019-01-05T15:58:08.050Z,40.27
2019-01-05T16:00:54.220Z,50.03
2019-01-05T16:03:42.177Z,44.53
2019-01-05T16:06:32.797Z,37.13
2019-01-05T16:12:42.157Z,39.38
2019-01-05T16:15:48.354Z,54.60
2019-01-05T16:18:39.849Z,44.30
2019-01-05T16:21:26.357Z,40.53
2019-01-05T16:24:14.615Z,50.40
2019-01-05T16:27:08.654Z,34.27
2019-01-05T16:30:00.017Z,43.23
2019-01-05T16:32:47.982Z,40.63
2019-01-05T16:35:28.547Z,58.73
2019-01-05T16:38:20.022Z,46.17
2019-01-05T16:41:11.498Z,34.67
2019-01-05T16:44:14.714Z,39.87
2019-01-05T16:47:21.766Z,50.83
2019-01-05T16:50:08.413Z,49.70
2019-01-05T16:52:56.710Z,40.23
2019-01-05T16:55:43.419Z,41.93
2019-01-05T16:58:43.974Z,40.43
2019-01-05T17:01:47.402Z,40.63
2019-01-05T17:04:50.471Z,38.87
2019-01-05T17:07:52.477Z,37.47
2019-01-05T17:10:40.852Z,45.40
2019-01-05T17:13:30.025Z,41.90
2019-01-05T17:16:16.689Z,45.33
2019-01-05T17:19:17.122Z,58.40
2019-01-05T17:22:04.060Z,51.20
2019-01-05T17:24:52.034Z,43.87
2019-01-05T17:27:38.890Z,51.57
2019-01-05T17:30:25.555Z,51.33
2019-01-05T17:33:19.865Z,48.50
2019-01-05T17:39:04.586Z,49.00
2019-01-05T17:41:51.428Z,41.03
2019-01-05T17:44:38.322Z,54.50
2019-01-05T17:47:26.492Z,53.63
2019-01-05T17:50:29.691Z,39.07
2019-01-05T17:53:23.923Z,41.10
2019-01-05T17:56:12.960Z,46.30
2019-01-05T17:59:08.603Z,36.00
2019-01-05T18:01:57.000Z,40.93
2019-01-05T18:04:51.109Z,49.47
2019-01-05T18:07:54.454Z,47.27
2019-01-05T18:10:31.358Z,40.17
2019-01-05T18:13:34.868Z,45.57
2019-01-05T18:16:23.148Z,45.90
2019-01-05T18:19:10.996Z,49.17
2019-01-05T18:21:59.262Z,33.33
2019-01-05T18:24:53.751Z,58.63
2019-01-05T18:27:45.502Z,49.50
2019-01-05T18:30:32.876Z,50.53
2019-01-05T18:33:20.961Z,59.23
2019-01-05T18:36:04.851Z,47.27
2019-01-05T18:38:51.665Z,54.73
2019-01-05T18:41:45.977Z,57.60
2019-01-05T18:44:33.271Z,52.97
2019-01-05T18:47:21.521Z,52.33
2019-01-05T18:53:21.658Z,57.10
2019-01-05T18:56:12.754Z,68.03
2019-01-05T18:58:59.752Z,63.30
2019-01-05T19:01:51.034Z,48.43
2019-01-05T19:04:46.548Z,49.93
2019-01-05T19:07:33.122Z,41.97
2019-01-05T19:10:27.391Z,45.87
2019-01-05T19:13:30.709Z,50.73
2019-01-05T19:16:33.907Z,50.13
2019-01-05T19:19:20.666Z,51.17
2019-01-05T19:22:08.092Z,47.33
2019-01-05T19:24:59.814Z,50.80
2019-01-05T19:27:57.340Z,47.97
2019-01-05T19:30:45.456Z,51.90
2019-01-05T19:33:48.982Z,52.87
2019-01-05T19:36:35.794Z,53.93
2019-01-05T19:39:31.496Z,55.37
2019-01-05T19:42:28.863Z,56.97
2019-01-05T19:45:26.097Z,56.23
2019-01-05T19:48:17.363Z,54.53
2019-01-05T19:51:04.086Z,67.03
2019-01-05T19:53:58.481Z,63.93
2019-01-05T19:56:45.530Z,57.67
2019-01-05T19:59:42.900Z,64.13
2019-01-05T20:02:31.069Z,65.57
2019-01-05T20:05:17.965Z,58.97
2019-01-05T20:08:05.074Z,66.03
2019-01-05T20:11:04.431Z,47.03
2019-01-05T20:13:55.605Z,58.03
2019-01-05T20:16:42.569Z,63.97
2019-01-05T20:19:30.830Z,66.93
2019-01-05T20:22:33.810Z,59.73
2019-01-05T20:25:20.598Z,71.33
2019-01-05T20:28:20.970Z,63.27
2019-01-05T20:31:17.603Z,67.23
2019-01-05T20:34:05.783Z,61.87
2019-01-05T20:36:54.193Z,68.27
2019-01-05T20:39:48.593Z,71.67
2019-01-05T20:42:35.381Z,75.60
2019-01-05T20:45:32.677Z,66.17
2019-01-05T20:48:20.921Z,63.67
2019-01-05T20:51:07.534Z,53.50
2019-01-05T20:54:07.996Z,51.77
2019-01-05T20:57:05.105Z,52.47
2019-01-05T20:59:51.989Z,66.33
2019-01-05T21:02:49.301Z,56.97
2019-01-05T21:05:40.582Z,46.97
2019-01-05T21:08:37.850Z,46.20
2019-01-05T21:11:32.000Z,44.80
2019-01-05T21:14:19.051Z,41.20
2019-01-05T21:17:05.949Z,39.20
2019-01-05T21:22:48.993Z,30.97
2019-01-05T21:25:59.218Z,27.83
2019-01-05T21:28:52.205Z,31.30
2019-01-05T21:31:40.675Z,32.87
2019-01-05T21:34:30.698Z,38.93
2019-01-05T21:37:33.943Z,44.03
2019-01-05T21:40:47.566Z,32.40
2019-01-05T21:43:54.862Z,33.60
2019-01-05T21:46:41.738Z,37.87
2019-01-05T21:49:42.259Z,31.10
2019-01-05T21:52:45.753Z,34.90
2019-01-05T21:55:39.917Z,36.90
2019-01-05T21:58:22.824Z,29.57
2019-01-05T22:01:17.041Z,35.33
2019-01-05T22:04:08.236Z,33.53
2019-01-05T22:06:57.174Z,29.30
2019-01-05T22:09:43.915Z,34.80
2019-01-05T22:12:35.299Z,40.37
2019-01-05T22:15:25.701Z,36.53
2019-01-05T22:18:11.261Z,28.67
2019-01-05T22:20:57.918Z,31.67
2019-01-05T22:23:49.103Z,30.30
2019-01-05T22:26:37.274Z,30.87
2019-01-05T22:29:23.895Z,28.43
2019-01-05T22:32:15.280Z,25.70
2019-01-05T22:35:02.196Z,22.00
2019-01-05T22:37:59.652Z,27.47
2019-01-05T22:40:46.521Z,23.17
2019-01-05T22:43:34.786Z,30.53
2019-01-05T22:46:22.969Z,33.50
2019-01-05T22:49:14.387Z,27.40
2019-01-05T22:52:17.542Z,22.43
2019-01-05T22:55:09.289Z,30.87
2019-01-05T22:58:03.575Z,25.13
2019-01-05T23:00:57.984Z,30.53
2019-01-05T23:04:01.261Z,36.87
2019-01-05T23:09:47.814Z,28.20
2019-01-05T23:12:43.172Z,38.73
2019-01-05T23:15:40.670Z,30.63
2019-01-05T23:18:28.925Z,30.13
2019-01-05T23:21:15.608Z,32.33
2019-01-05T23:24:03.874Z,30.73
2019-01-05T23:26:50.698Z,27.93
2019-01-05T23:29:36.068Z,26.70
2019-01-05T23:32:22.609Z,34.63
2019-01-05T23:35:08.241Z,28.30
2019-01-05T23:38:02.415Z,37.13
2019-01-05T23:40:57.652Z,24.33
2019-01-05T23:43:44.389Z,35.17
2019-01-05T23:46:32.748Z,35.90
2019-01-05T23:49:20.912Z,30.37
2019-01-05T23:52:07.585Z,25.00
2019-01-05T23:55:13.993Z,31.80
2019-01-05T23:58:32.982Z,33.63
